sensor_id;sensor_type;location;lat;lon;timestamp;pressure;altitude;pressure_sealevel;temperature;humidity
63556;BME280;49700;48.072;7.800;2023-05-22T00:00:13;99142.44;;;17.53;nan
63556;BME280;49700;48.072;7.800;2023-05-22T00:02:39;99139.94;;;17.52;nan
63556;BME280;49700;48.072;7.800;2023-05-22T00:05:11;99135.63;;;17.51;nan
63556;BME280;49700;48.072;7.800;2023-05-22T00:07:37;99129.63;;;17.48;nan
63556;BME280;49700;48.072;7.800;2023-05-22T00:10:04;99129.25;;;17.43;nan
63556;BME280;49700;48.072;7.800;2023-05-22T00:12:29;99120.59;;;17.41;nan
63556;BME280;49700;48.072;7.800;2023-05-22T00:14:55;99118.09;;;17.40;nan
63556;BME280;49700;48.072;7.800;2023-05-22T00:17:20;99121.91;;;17.37;nan
63556;BME280;49700;48.072;7.800;2023-05-22T00:19:45;99124.03;;;17.34;nan
63556;BME280;49700;48.072;7.800;2023-05-22T00:22:11;99127.13;;;17.29;nan
63556;BME280;49700;48.072;7.800;2023-05-22T00:24:37;99114.19;;;17.26;nan
63556;BME280;49700;48.072;7.800;2023-05-22T00:27:03;99116.84;;;17.26;nan
63556;BME280;49700;48.072;7.800;2023-05-22T00:29:29;99118.78;;;17.24;nan
63556;BME280;49700;48.072;7.800;2023-05-22T00:31:55;99124.41;;;17.21;nan
63556;BME280;49700;48.072;7.800;2023-05-22T00:34:20;99130.03;;;17.18;nan
63556;BME280;49700;48.072;7.800;2023-05-22T00:36:46;99126.81;;;17.14;nan
63556;BME280;49700;48.072;7.800;2023-05-22T00:39:11;99135.78;;;17.13;nan
63556;BME280;49700;48.072;7.800;2023-05-22T00:41:37;99133.44;;;17.10;nan
63556;BME280;49700;48.072;7.800;2023-05-22T00:44:03;99132.91;;;17.07;nan
63556;BME280;49700;48.072;7.800;2023-05-22T00:46:28;99131.66;;;17.01;nan
63556;BME280;49700;48.072;7.800;2023-05-22T00:48:53;99129.63;;;16.95;nan
63556;BME280;49700;48.072;7.800;2023-05-22T00:51:20;99130.91;;;16.91;nan
63556;BME280;49700;48.072;7.800;2023-05-22T00:53:49;99130.06;;;16.90;nan
63556;BME280;49700;48.072;7.800;2023-05-22T00:56:18;99138.03;;;16.90;nan
63556;BME280;49700;48.072;7.800;2023-05-22T00:58:44;99144.47;;;16.88;nan
63556;BME280;49700;48.072;7.800;2023-05-22T01:01:09;99142.28;;;16.83;nan
63556;BME280;49700;48.072;7.800;2023-05-22T01:03:39;99149.66;;;16.79;nan
63556;BME280;49700;48.072;7.800;2023-05-22T01:06:14;99141.56;;;16.81;nan
63556;BME280;49700;48.072;7.800;2023-05-22T01:08:42;99142.56;;;16.80;nan
63556;BME280;49700;48.072;7.800;2023-05-22T01:11:27;99133.09;;;16.77;nan
63556;BME280;49700;48.072;7.800;2023-05-22T01:14:39;99135.16;;;16.74;nan
63556;BME280;49700;48.072;7.800;2023-05-22T01:33:56;99139.66;;;16.46;nan
63556;BME280;49700;48.072;7.800;2023-05-22T01:36:30;99137.72;;;16.38;nan
63556;BME280;49700;48.072;7.800;2023-05-22T01:38:59;99143.31;;;16.35;nan
63556;BME280;49700;48.072;7.800;2023-05-22T01:41:28;99138.00;;;16.35;nan
63556;BME280;49700;48.072;7.800;2023-05-22T01:43:53;99143.44;;;16.33;nan
63556;BME280;49700;48.072;7.800;2023-05-22T01:46:20;99145.97;;;16.35;nan
63556;BME280;49700;48.072;7.800;2023-05-22T01:48:46;99141.34;;;16.37;nan
63556;BME280;49700;48.072;7.800;2023-05-22T01:51:18;99144.72;;;16.39;nan
63556;BME280;49700;48.072;7.800;2023-05-22T01:56:19;99147.06;;;16.42;nan
63556;BME280;49700;48.072;7.800;2023-05-22T01:58:53;99138.53;;;16.38;nan
63556;BME280;49700;48.072;7.800;2023-05-22T02:01:21;99131.59;;;16.37;nan
63556;BME280;49700;48.072;7.800;2023-05-22T02:03:54;99125.47;;;16.37;nan
63556;BME280;49700;48.072;7.800;2023-05-22T02:06:21;99125.28;;;16.38;nan
63556;BME280;49700;48.072;7.800;2023-05-22T02:08:47;99127.94;;;16.38;nan
63556;BME280;49700;48.072;7.800;2023-05-22T02:11:15;99125.47;;;16.37;nan
63556;BME280;49700;48.072;7.800;2023-05-22T02:13:41;99134.09;;;16.39;nan
63556;BME280;49700;48.072;7.800;2023-05-22T02:16:07;99138.00;;;16.35;nan
63556;BME280;49700;48.072;7.800;2023-05-22T02:18:32;99133.84;;;16.32;nan
63556;BME280;49700;48.072;7.800;2023-05-22T02:20:59;99134.66;;;16.33;nan
63556;BME280;49700;48.072;7.800;2023-05-22T02:23:25;99136.34;;;16.34;nan
63556;BME280;49700;48.072;7.800;2023-05-22T02:25:54;99131.72;;;16.36;nan
63556;BME280;49700;48.072;7.800;2023-05-22T02:28:20;99125.47;;;16.37;nan
63556;BME280;49700;48.072;7.800;2023-05-22T02:30:45;99124.63;;;16.36;nan
63556;BME280;49700;48.072;7.800;2023-05-22T02:33:11;99126.41;;;16.36;nan
63556;BME280;49700;48.072;7.800;2023-05-22T02:35:37;99121.97;;;16.36;nan
63556;BME280;49700;48.072;7.800;2023-05-22T02:38:02;99123.34;;;16.41;nan
63556;BME280;49700;48.072;7.800;2023-05-22T02:40:28;99116.09;;;16.43;nan
63556;BME280;49700;48.072;7.800;2023-05-22T02:42:53;99113.97;;;16.46;nan
63556;BME280;49700;48.072;7.800;2023-05-22T02:45:19;99104.88;;;16.49;nan
63556;BME280;49700;48.072;7.800;2023-05-22T02:47:44;99113.34;;;16.52;nan
63556;BME280;49700;48.072;7.800;2023-05-22T02:50:10;99107.94;;;16.54;nan
63556;BME280;49700;48.072;7.800;2023-05-22T02:52:36;99106.09;;;16.54;nan
63556;BME280;49700;48.072;7.800;2023-05-22T02:55:03;99105.28;;;16.54;nan
63556;BME280;49700;48.072;7.800;2023-05-22T02:57:29;99110.56;;;16.54;nan
63556;BME280;49700;48.072;7.800;2023-05-22T02:59:57;99107.94;;;16.54;nan
63556;BME280;49700;48.072;7.800;2023-05-22T03:02:26;99109.44;;;16.56;nan
63556;BME280;49700;48.072;7.800;2023-05-22T03:04:57;99111.09;;;16.57;nan
63556;BME280;49700;48.072;7.800;2023-05-22T03:07:25;99108.03;;;16.62;nan
63556;BME280;49700;48.072;7.800;2023-05-22T03:09:51;99111.38;;;16.64;nan
63556;BME280;49700;48.072;7.800;2023-05-22T03:12:17;99106.88;;;16.65;nan
63556;BME280;49700;48.072;7.800;2023-05-22T03:14:43;99113.84;;;16.66;nan
63556;BME280;49700;48.072;7.800;2023-05-22T03:17:08;99108.41;;;16.67;nan
63556;BME280;49700;48.072;7.800;2023-05-22T03:19:34;99118.03;;;16.68;nan
63556;BME280;49700;48.072;7.800;2023-05-22T03:21:59;99117.06;;;16.69;nan
63556;BME280;49700;48.072;7.800;2023-05-22T03:24:24;99119.00;;;16.67;nan
63556;BME280;49700;48.072;7.800;2023-05-22T03:26:51;99113.84;;;16.66;nan
63556;BME280;49700;48.072;7.800;2023-05-22T03:29:23;99112.88;;;16.67;nan
63556;BME280;49700;48.072;7.800;2023-05-22T03:31:48;99121.81;;;16.66;nan
63556;BME280;49700;48.072;7.800;2023-05-22T03:34:14;99118.50;;;16.64;nan
63556;BME280;49700;48.072;7.800;2023-05-22T03:36:43;99126.28;;;16.65;nan
63556;BME280;49700;48.072;7.800;2023-05-22T03:39:10;99125.31;;;16.66;nan
63556;BME280;49700;48.072;7.800;2023-05-22T03:41:40;99123.31;;;16.68;nan
63556;BME280;49700;48.072;7.800;2023-05-22T03:44:06;99121.22;;;16.72;nan
63556;BME280;49700;48.072;7.800;2023-05-22T03:46:32;99120.94;;;16.75;nan
63556;BME280;49700;48.072;7.800;2023-05-22T03:48:57;99123.41;;;16.76;nan
63556;BME280;49700;48.072;7.800;2023-05-22T03:51:23;99128.63;;;16.78;nan
63556;BME280;49700;48.072;7.800;2023-05-22T03:53:48;99133.91;;;16.78;nan
63556;BME280;49700;48.072;7.800;2023-05-22T03:56:14;99131.97;;;16.80;nan
63556;BME280;49700;48.072;7.800;2023-05-22T03:58:40;99130.97;;;16.81;nan
63556;BME280;49700;48.072;7.800;2023-05-22T04:01:06;99130.84;;;16.83;nan
63556;BME280;49700;48.072;7.800;2023-05-22T04:03:35;99128.84;;;16.85;nan
63556;BME280;49700;48.072;7.800;2023-05-22T04:06:00;99130.53;;;16.86;nan
63556;BME280;49700;48.072;7.800;2023-05-22T04:08:27;99132.06;;;16.88;nan
63556;BME280;49700;48.072;7.800;2023-05-22T04:10:52;99133.00;;;16.87;nan
63556;BME280;49700;48.072;7.800;2023-05-22T04:13:18;99134.69;;;16.88;nan
63556;BME280;49700;48.072;7.800;2023-05-22T04:15:44;99131.88;;;16.90;nan
63556;BME280;49700;48.072;7.800;2023-05-22T04:18:12;99135.22;;;16.92;nan
63556;BME280;49700;48.072;7.800;2023-05-22T04:20:37;99127.97;;;16.94;nan
63556;BME280;49700;48.072;7.800;2023-05-22T04:23:03;99132.97;;;16.97;nan
63556;BME280;49700;48.072;7.800;2023-05-22T04:25:29;99137.13;;;16.99;nan
63556;BME280;49700;48.072;7.800;2023-05-22T04:27:56;99135.84;;;17.03;nan
63556;BME280;49700;48.072;7.800;2023-05-22T04:30:21;99135.56;;;17.07;nan
63556;BME280;49700;48.072;7.800;2023-05-22T04:32:46;99142.22;;;17.11;nan
63556;BME280;49700;48.072;7.800;2023-05-22T04:35:12;99149.88;;;17.14;nan
63556;BME280;49700;48.072;7.800;2023-05-22T04:37:40;99145.66;;;17.21;nan
63556;BME280;49700;48.072;7.800;2023-05-22T04:40:09;99154.81;;;17.27;nan
63556;BME280;49700;48.072;7.800;2023-05-22T04:42:36;99155.59;;;17.37;nan
63556;BME280;49700;48.072;7.800;2023-05-22T04:45:03;99155.56;;;17.55;nan
63556;BME280;49700;48.072;7.800;2023-05-22T04:47:28;99157.19;;;17.74;nan
63556;BME280;49700;48.072;7.800;2023-05-22T04:49:58;99155.75;;;17.97;nan
63556;BME280;49700;48.072;7.800;2023-05-22T04:52:25;99151.59;;;18.21;nan
63556;BME280;49700;48.072;7.800;2023-05-22T04:54:50;99158.84;;;18.45;nan
63556;BME280;49700;48.072;7.800;2023-05-22T04:57:20;99156.69;;;18.74;nan
63556;BME280;49700;48.072;7.800;2023-05-22T04:59:46;99149.75;;;19.06;nan
63556;BME280;49700;48.072;7.800;2023-05-22T05:02:13;99155.97;;;19.39;nan
63556;BME280;49700;48.072;7.800;2023-05-22T05:04:39;99158.00;;;19.78;nan
63556;BME280;49700;48.072;7.800;2023-05-22T05:07:05;99156.75;;;20.22;nan
63556;BME280;49700;48.072;7.800;2023-05-22T05:09:31;99155.34;;;20.50;nan
63556;BME280;49700;48.072;7.800;2023-05-22T05:11:57;99153.31;;;20.69;nan
63556;BME280;49700;48.072;7.800;2023-05-22T05:14:23;99153.53;;;20.90;nan
63556;BME280;49700;48.072;7.800;2023-05-22T05:16:48;99155.25;;;21.14;nan
63556;BME280;49700;48.072;7.800;2023-05-22T05:19:16;99152.59;;;21.37;nan
63556;BME280;49700;48.072;7.800;2023-05-22T05:21:45;99154.53;;;21.67;nan
63556;BME280;49700;48.072;7.800;2023-05-22T05:24:11;99152.59;;;21.98;nan
63556;BME280;49700;48.072;7.800;2023-05-22T05:26:37;99150.06;;;22.35;nan
63556;BME280;49700;48.072;7.800;2023-05-22T05:29:02;99151.78;;;22.72;nan
63556;BME280;49700;48.072;7.800;2023-05-22T05:31:35;99147.66;;;23.06;nan
63556;BME280;49700;48.072;7.800;2023-05-22T05:34:11;99132.13;;;23.16;nan
63556;BME280;49700;48.072;7.800;2023-05-22T05:36:56;99137.06;;;22.97;nan
63556;BME280;49700;48.072;7.800;2023-05-22T05:39:22;99147.69;;;22.76;nan
63556;BME280;49700;48.072;7.800;2023-05-22T05:41:48;99147.38;;;22.49;nan
63556;BME280;49700;48.072;7.800;2023-05-22T05:44:14;99148.84;;;22.22;nan
63556;BME280;49700;48.072;7.800;2023-05-22T05:46:40;99157.81;;;21.92;nan
63556;BME280;49700;48.072;7.800;2023-05-22T05:49:10;99152.25;;;21.63;nan
63556;BME280;49700;48.072;7.800;2023-05-22T05:51:37;99152.69;;;21.44;nan
63556;BME280;49700;48.072;7.800;2023-05-22T05:54:03;99155.28;;;21.29;nan
63556;BME280;49700;48.072;7.800;2023-05-22T05:56:30;99155.06;;;21.16;nan
63556;BME280;49700;48.072;7.800;2023-05-22T05:58:55;99154.78;;;21.03;nan
63556;BME280;49700;48.072;7.800;2023-05-22T06:01:44;99157.03;;;20.91;nan
63556;BME280;49700;48.072;7.800;2023-05-22T06:04:17;99162.22;;;20.84;nan
63556;BME280;49700;48.072;7.800;2023-05-22T06:06:44;99166.44;;;20.78;nan
63556;BME280;49700;48.072;7.800;2023-05-22T06:09:24;99161.75;;;20.81;nan
63556;BME280;49700;48.072;7.800;2023-05-22T06:12:10;99164.75;;;20.86;nan
63556;BME280;49700;48.072;7.800;2023-05-22T06:14:38;99156.84;;;20.92;nan
63556;BME280;49700;48.072;7.800;2023-05-22T06:17:05;99165.47;;;21.03;nan
63556;BME280;49700;48.072;7.800;2023-05-22T06:19:34;99166.56;;;21.16;nan
63556;BME280;49700;48.072;7.800;2023-05-22T06:21:59;99159.63;;;21.30;nan
63556;BME280;49700;48.072;7.800;2023-05-22T06:24:25;99173.13;;;21.60;nan
63556;BME280;49700;48.072;7.800;2023-05-22T06:26:51;99168.72;;;22.05;nan
63556;BME280;49700;48.072;7.800;2023-05-22T06:29:16;99160.78;;;22.49;nan
63556;BME280;49700;48.072;7.800;2023-05-22T06:31:44;99161.16;;;22.97;nan
63556;BME280;49700;48.072;7.800;2023-05-22T06:34:16;99160.13;;;23.56;nan
63556;BME280;49700;48.072;7.800;2023-05-22T06:36:41;99160.44;;;24.18;nan
63556;BME280;49700;48.072;7.800;2023-05-22T06:39:07;99153.53;;;24.71;nan
63556;BME280;49700;48.072;7.800;2023-05-22T06:42:11;99148.56;;;25.30;nan
63556;BME280;49700;48.072;7.800;2023-05-22T06:44:55;99159.56;;;25.61;nan
63556;BME280;49700;48.072;7.800;2023-05-22T06:47:28;99157.94;;;25.74;nan
63556;BME280;49700;48.072;7.800;2023-05-22T06:49:55;99156.28;;;26.06;nan
63556;BME280;49700;48.072;7.800;2023-05-22T06:52:21;99145.22;;;26.54;nan
63556;BME280;49700;48.072;7.800;2023-05-22T06:54:46;99143.53;;;27.05;nan
63556;BME280;49700;48.072;7.800;2023-05-22T06:57:13;99131.81;;;27.31;nan
63556;BME280;49700;48.072;7.800;2023-05-22T06:59:39;99147.81;;;27.57;nan
63556;BME280;49700;48.072;7.800;2023-05-22T07:02:05;99148.91;;;27.75;nan
63556;BME280;49700;48.072;7.800;2023-05-22T07:04:49;99149.19;;;27.92;nan
63556;BME280;49700;48.072;7.800;2023-05-22T07:07:21;99150.25;;;27.91;nan
63556;BME280;49700;48.072;7.800;2023-05-22T07:09:46;99146.91;;;28.14;nan
63556;BME280;49700;48.072;7.800;2023-05-22T07:12:12;99150.69;;;28.31;nan
63556;BME280;49700;48.072;7.800;2023-05-22T07:14:38;99137.06;;;28.63;nan
63556;BME280;49700;48.072;7.800;2023-05-22T07:17:03;99145.72;;;28.83;nan
63556;BME280;49700;48.072;7.800;2023-05-22T07:19:34;99142.94;;;29.08;nan
63556;BME280;49700;48.072;7.800;2023-05-22T07:22:02;99137.31;;;29.22;nan
63556;BME280;49700;48.072;7.800;2023-05-22T07:24:29;99144.28;;;29.29;nan
63556;BME280;49700;48.072;7.800;2023-05-22T07:26:54;99147.31;;;29.21;nan
63556;BME280;49700;48.072;7.800;2023-05-22T07:29:20;99141.34;;;29.01;nan
63556;BME280;49700;48.072;7.800;2023-05-22T07:31:48;99142.63;;;28.98;nan
63556;BME280;49700;48.072;7.800;2023-05-22T07:34:14;99137.66;;;29.14;nan
63556;BME280;49700;48.072;7.800;2023-05-22T07:36:40;99143.13;;;29.25;nan
63556;BME280;49700;48.072;7.800;2023-05-22T07:39:06;99134.66;;;29.33;nan
63556;BME280;49700;48.072;7.800;2023-05-22T07:41:37;99136.09;;;29.48;nan
63556;BME280;49700;48.072;7.800;2023-05-22T07:44:04;99138.53;;;29.68;nan
63556;BME280;49700;48.072;7.800;2023-05-22T07:46:35;99143.38;;;30.01;nan
63556;BME280;49700;48.072;7.800;2023-05-22T07:49:11;99131.72;;;30.12;nan
63556;BME280;49700;48.072;7.800;2023-05-22T07:51:39;99134.06;;;29.85;nan
63556;BME280;49700;48.072;7.800;2023-05-22T07:54:06;99145.56;;;29.57;nan
63556;BME280;49700;48.072;7.800;2023-05-22T07:56:32;99138.06;;;29.29;nan
63556;BME280;49700;48.072;7.800;2023-05-22T07:58:58;99131.28;;;29.08;nan
63556;BME280;49700;48.072;7.800;2023-05-22T08:01:25;99135.19;;;29.12;nan
63556;BME280;49700;48.072;7.800;2023-05-22T08:03:50;99131.72;;;29.35;nan
63556;BME280;49700;48.072;7.800;2023-05-22T08:06:16;99126.56;;;29.45;nan
63556;BME280;49700;48.072;7.800;2023-05-22T08:08:42;99134.00;;;29.50;nan
63556;BME280;49700;48.072;7.800;2023-05-22T08:11:07;99132.91;;;29.39;nan
63556;BME280;49700;48.072;7.800;2023-05-22T08:13:32;99125.03;;;29.38;nan
63556;BME280;49700;48.072;7.800;2023-05-22T08:15:58;99122.91;;;29.28;nan
63556;BME280;49700;48.072;7.800;2023-05-22T08:18:23;99131.06;;;29.09;nan
63556;BME280;49700;48.072;7.800;2023-05-22T08:20:52;99132.28;;;28.95;nan
63556;BME280;49700;48.072;7.800;2023-05-22T08:23:17;99135.94;;;29.01;nan
63556;BME280;49700;48.072;7.800;2023-05-22T08:25:43;99135.50;;;29.04;nan
63556;BME280;49700;48.072;7.800;2023-05-22T08:28:08;99125.94;;;29.01;nan
63556;BME280;49700;48.072;7.800;2023-05-22T08:30:34;99138.13;;;28.92;nan
63556;BME280;49700;48.072;7.800;2023-05-22T08:33:01;99131.56;;;28.70;nan
63556;BME280;49700;48.072;7.800;2023-05-22T08:35:27;99126.63;;;28.48;nan
63556;BME280;49700;48.072;7.800;2023-05-22T08:37:52;99138.66;;;28.27;nan
63556;BME280;49700;48.072;7.800;2023-05-22T08:40:19;99134.47;;;28.13;nan
63556;BME280;49700;48.072;7.800;2023-05-22T08:42:45;99140.59;;;28.01;nan
63556;BME280;49700;48.072;7.800;2023-05-22T08:45:11;99130.00;;;28.00;nan
63556;BME280;49700;48.072;7.800;2023-05-22T08:47:41;99132.13;;;27.98;nan
63556;BME280;49700;48.072;7.800;2023-05-22T08:50:09;99137.00;;;28.08;nan
63556;BME280;49700;48.072;7.800;2023-05-22T08:52:49;99126.66;;;28.05;nan
63556;BME280;49700;48.072;7.800;2023-05-22T08:55:15;99131.50;;;27.96;nan
63556;BME280;49700;48.072;7.800;2023-05-22T08:57:44;99130.00;;;28.00;nan
63556;BME280;49700;48.072;7.800;2023-05-22T09:00:10;99129.63;;;27.96;nan
63556;BME280;49700;48.072;7.800;2023-05-22T09:02:37;99127.16;;;27.95;nan
63556;BME280;49700;48.072;7.800;2023-05-22T09:05:05;99122.97;;;27.99;nan
63556;BME280;49700;48.072;7.800;2023-05-22T09:07:31;99124.94;;;28.10;nan
63556;BME280;49700;48.072;7.800;2023-05-22T09:09:57;99125.16;;;28.09;nan
63556;BME280;49700;48.072;7.800;2023-05-22T09:12:24;99120.06;;;28.19;nan
63556;BME280;49700;48.072;7.800;2023-05-22T09:14:51;99121.59;;;28.33;nan
63556;BME280;49700;48.072;7.800;2023-05-22T09:17:17;99117.00;;;28.34;nan
63556;BME280;49700;48.072;7.800;2023-05-22T09:19:47;99116.41;;;28.50;nan
63556;BME280;49700;48.072;7.800;2023-05-22T09:22:12;99112.88;;;28.68;nan
63556;BME280;49700;48.072;7.800;2023-05-22T09:24:40;99119.16;;;28.80;nan
63556;BME280;49700;48.072;7.800;2023-05-22T09:27:07;99113.22;;;28.90;nan
63556;BME280;49700;48.072;7.800;2023-05-22T09:29:52;99120.28;;;29.03;nan
63556;BME280;49700;48.072;7.800;2023-05-22T09:32:18;99121.00;;;28.98;nan
63556;BME280;49700;48.072;7.800;2023-05-22T09:34:44;99118.38;;;28.92;nan
63556;BME280;49700;48.072;7.800;2023-05-22T09:37:14;99116.81;;;28.84;nan
63556;BME280;49700;48.072;7.800;2023-05-22T09:39:44;99116.28;;;28.94;nan
63556;BME280;49700;48.072;7.800;2023-05-22T09:42:14;99111.44;;;29.14;nan
63556;BME280;49700;48.072;7.800;2023-05-22T09:44:41;99106.69;;;29.40;nan
63556;BME280;49700;48.072;7.800;2023-05-22T09:47:08;99115.88;;;29.50;nan
63556;BME280;49700;48.072;7.800;2023-05-22T09:49:44;99114.47;;;29.48;nan
63556;BME280;49700;48.072;7.800;2023-05-22T09:52:10;99100.44;;;29.39;nan
63556;BME280;49700;48.072;7.800;2023-05-22T09:54:52;99095.25;;;29.26;nan
63556;BME280;49700;48.072;7.800;2023-05-22T09:57:22;99097.81;;;29.21;nan
63556;BME280;49700;48.072;7.800;2023-05-22T09:59:53;99100.19;;;29.29;nan
63556;BME280;49700;48.072;7.800;2023-05-22T10:02:23;99097.97;;;29.38;nan
63556;BME280;49700;48.072;7.800;2023-05-22T10:04:48;99099.28;;;29.59;nan
63556;BME280;49700;48.072;7.800;2023-05-22T10:07:17;99092.06;;;29.71;nan
63556;BME280;49700;48.072;7.800;2023-05-22T10:09:47;99093.00;;;29.76;nan
63556;BME280;49700;48.072;7.800;2023-05-22T10:12:20;99084.06;;;29.76;nan
63556;BME280;49700;48.072;7.800;2023-05-22T10:14:47;99086.97;;;29.86;nan
63556;BME280;49700;48.072;7.800;2023-05-22T10:17:14;99090.84;;;30.02;nan
63556;BME280;49700;48.072;7.800;2023-05-22T10:19:41;99086.84;;;30.16;nan
63556;BME280;49700;48.072;7.800;2023-05-22T10:22:07;99092.59;;;30.20;nan
63556;BME280;49700;48.072;7.800;2023-05-22T10:24:33;99089.78;;;30.27;nan
63556;BME280;49700;48.072;7.800;2023-05-22T10:26:58;99094.34;;;30.38;nan
63556;BME280;49700;48.072;7.800;2023-05-22T10:29:30;99088.91;;;30.50;nan
63556;BME280;49700;48.072;7.800;2023-05-22T10:32:08;99081.59;;;30.50;nan
63556;BME280;49700;48.072;7.800;2023-05-22T10:37:41;99081.53;;;30.33;nan
63556;BME280;49700;48.072;7.800;2023-05-22T10:40:10;99075.53;;;30.19;nan
63556;BME280;49700;48.072;7.800;2023-05-22T10:42:37;99075.31;;;30.09;nan
63556;BME280;49700;48.072;7.800;2023-05-22T10:45:05;99072.00;;;30.07;nan
63556;BME280;49700;48.072;7.800;2023-05-22T10:47:34;99064.22;;;30.11;nan
63556;BME280;49700;48.072;7.800;2023-05-22T10:50:10;99061.06;;;30.26;nan
63556;BME280;49700;48.072;7.800;2023-05-22T10:52:37;99064.53;;;30.38;nan
63556;BME280;49700;48.072;7.800;2023-05-22T10:55:07;99061.28;;;30.36;nan
63556;BME280;49700;48.072;7.800;2023-05-22T10:57:34;99053.63;;;30.33;nan
63556;BME280;49700;48.072;7.800;2023-05-22T11:00:11;99061.53;;;30.23;nan
63556;BME280;49700;48.072;7.800;2023-05-22T11:02:42;99060.31;;;30.18;nan
63556;BME280;49700;48.072;7.800;2023-05-22T11:07:43;99057.06;;;30.16;nan
63556;BME280;49700;48.072;7.800;2023-05-22T11:10:08;99054.34;;;30.16;nan
63556;BME280;49700;48.072;7.800;2023-05-22T11:12:34;99055.97;;;30.17;nan
63556;BME280;49700;48.072;7.800;2023-05-22T11:15:05;99057.75;;;30.12;nan
63556;BME280;49700;48.072;7.800;2023-05-22T11:20:05;99070.59;;;29.81;nan
63556;BME280;49700;48.072;7.800;2023-05-22T11:22:32;99076.41;;;29.85;nan
63556;BME280;49700;48.072;7.800;2023-05-22T11:24:58;99087.56;;;29.88;nan
63556;BME280;49700;48.072;7.800;2023-05-22T11:27:24;99086.50;;;30.01;nan
63556;BME280;49700;48.072;7.800;2023-05-22T11:29:49;99095.56;;;30.07;nan
63556;BME280;49700;48.072;7.800;2023-05-22T11:32:16;99093.94;;;30.06;nan
63556;BME280;49700;48.072;7.800;2023-05-22T11:34:45;99086.63;;;29.94;nan
63556;BME280;49700;48.072;7.800;2023-05-22T11:37:11;99082.28;;;29.82;nan
63556;BME280;49700;48.072;7.800;2023-05-22T11:39:37;99076.63;;;29.71;nan
63556;BME280;49700;48.072;7.800;2023-05-22T11:42:02;99074.97;;;29.70;nan
63556;BME280;49700;48.072;7.800;2023-05-22T11:44:29;99077.91;;;29.69;nan
63556;BME280;49700;48.072;7.800;2023-05-22T11:46:54;99086.25;;;29.67;nan
63556;BME280;49700;48.072;7.800;2023-05-22T11:49:22;99093.06;;;29.58;nan
63556;BME280;49700;48.072;7.800;2023-05-22T11:51:48;99087.41;;;29.48;nan
63556;BME280;49700;48.072;7.800;2023-05-22T11:54:17;99095.13;;;29.32;nan
63556;BME280;49700;48.072;7.800;2023-05-22T11:56:44;99091.72;;;29.25;nan
63556;BME280;49700;48.072;7.800;2023-05-22T11:59:10;99083.22;;;29.22;nan
63556;BME280;49700;48.072;7.800;2023-05-22T12:01:35;99085.56;;;29.18;nan
63556;BME280;49700;48.072;7.800;2023-05-22T12:04:01;99075.44;;;29.14;nan
63556;BME280;49700;48.072;7.800;2023-05-22T12:06:26;99078.25;;;29.07;nan
63556;BME280;49700;48.072;7.800;2023-05-22T12:08:52;99076.06;;;28.97;nan
63556;BME280;49700;48.072;7.800;2023-05-22T12:11:18;99077.13;;;28.84;nan
63556;BME280;49700;48.072;7.800;2023-05-22T12:13:43;99078.47;;;28.75;nan
63556;BME280;49700;48.072;7.800;2023-05-22T12:16:19;99067.53;;;28.70;nan
63556;BME280;49700;48.072;7.800;2023-05-22T12:18:51;99067.84;;;28.62;nan
63556;BME280;49700;48.072;7.800;2023-05-22T12:21:18;99069.81;;;28.55;nan
63556;BME280;49700;48.072;7.800;2023-05-22T12:23:48;99067.84;;;28.43;nan
63556;BME280;49700;48.072;7.800;2023-05-22T12:26:14;99065.38;;;28.23;nan
63556;BME280;49700;48.072;7.800;2023-05-22T12:28:40;99059.09;;;28.11;nan
63556;BME280;49700;48.072;7.800;2023-05-22T12:31:05;99071.88;;;27.97;nan
63556;BME280;49700;48.072;7.800;2023-05-22T12:33:30;99075.31;;;27.86;nan
63556;BME280;49700;48.072;7.800;2023-05-22T12:35:56;99069.97;;;27.79;nan
63556;BME280;49700;48.072;7.800;2023-05-22T12:38:29;99072.72;;;27.73;nan
63556;BME280;49700;48.072;7.800;2023-05-22T12:40:55;99071.53;;;27.69;nan
63556;BME280;49700;48.072;7.800;2023-05-22T12:43:22;99071.38;;;27.64;nan
63556;BME280;49700;48.072;7.800;2023-05-22T12:45:49;99066.19;;;27.62;nan
63556;BME280;49700;48.072;7.800;2023-05-22T12:48:15;99073.81;;;27.65;nan
63556;BME280;49700;48.072;7.800;2023-05-22T12:50:42;99068.00;;;27.68;nan
63556;BME280;49700;48.072;7.800;2023-05-22T12:53:07;99066.31;;;27.74;nan
63556;BME280;49700;48.072;7.800;2023-05-22T12:55:33;99067.72;;;27.76;nan
63556;BME280;49700;48.072;7.800;2023-05-22T12:57:59;99061.88;;;27.79;nan
63556;BME280;49700;48.072;7.800;2023-05-22T13:00:24;99060.84;;;27.80;nan
63556;BME280;49700;48.072;7.800;2023-05-22T13:02:50;99061.66;;;27.81;nan
63556;BME280;49700;48.072;7.800;2023-05-22T13:05:16;99047.34;;;27.80;nan
63556;BME280;49700;48.072;7.800;2023-05-22T13:07:41;99060.66;;;27.82;nan
63556;BME280;49700;48.072;7.800;2023-05-22T13:10:07;99061.16;;;27.91;nan
63556;BME280;49700;48.072;7.800;2023-05-22T13:12:32;99058.19;;;27.99;nan
63556;BME280;49700;48.072;7.800;2023-05-22T13:14:58;99059.16;;;28.05;nan
63556;BME280;49700;48.072;7.800;2023-05-22T13:17:25;99055.53;;;28.11;nan
63556;BME280;49700;48.072;7.800;2023-05-22T13:19:51;99045.28;;;28.19;nan
63556;BME280;49700;48.072;7.800;2023-05-22T13:22:16;99045.81;;;28.28;nan
63556;BME280;49700;48.072;7.800;2023-05-22T13:24:42;99046.47;;;28.42;nan
63556;BME280;49700;48.072;7.800;2023-05-22T13:27:08;99049.84;;;28.56;nan
63556;BME280;49700;48.072;7.800;2023-05-22T13:29:33;99041.56;;;28.69;nan
63556;BME280;49700;48.072;7.800;2023-05-22T13:31:59;99042.53;;;28.86;nan
63556;BME280;49700;48.072;7.800;2023-05-22T13:34:25;99032.13;;;29.02;nan
63556;BME280;49700;48.072;7.800;2023-05-22T13:36:51;99037.72;;;29.19;nan
63556;BME280;49700;48.072;7.800;2023-05-22T13:39:16;99030.66;;;29.29;nan
63556;BME280;49700;48.072;7.800;2023-05-22T13:41:42;99026.09;;;29.30;nan
63556;BME280;49700;48.072;7.800;2023-05-22T13:44:07;99035.63;;;29.32;nan
63556;BME280;49700;48.072;7.800;2023-05-22T13:46:32;99023.06;;;29.38;nan
63556;BME280;49700;48.072;7.800;2023-05-22T13:48:58;99020.91;;;29.40;nan
63556;BME280;49700;48.072;7.800;2023-05-22T13:51:24;99025.84;;;29.43;nan